createdAt,value
2023-03-26T00:01:54.172Z,100.00
2023-03-26T00:04:21.984Z,100.00
2023-03-26T00:06:50.470Z,100.00
2023-03-26T00:09:18.700Z,100.00
2023-03-26T00:11:49.448Z,100.00
2023-03-26T00:14:17.996Z,100.00
2023-03-26T00:16:47.719Z,100.00
2023-03-26T00:19:15.803Z,100.00
2023-03-26T00:21:43.430Z,100.00
2023-03-26T00:24:15.445Z,100.00
2023-03-26T00:26:44.774Z,100.00
2023-03-26T00:29:14.057Z,100.00
2023-03-26T00:31:46.545Z,100.00
2023-03-26T00:34:18.908Z,100.00
2023-03-26T00:36:47.330Z,100.00
2023-03-26T00:39:17.954Z,100.00
2023-03-26T00:41:45.689Z,100.00
2023-03-26T00:44:13.589Z,100.00
2023-03-26T00:46:41.392Z,100.00
2023-03-26T00:49:11.082Z,100.00
2023-03-26T00:51:39.346Z,100.00
2023-03-26T00:54:09.777Z,100.00
2023-03-26T00:56:38.901Z,100.00
2023-03-26T00:59:06.624Z,100.00
2023-03-26T01:01:34.260Z,100.00
2023-03-26T01:04:27.526Z,100.00
2023-03-26T01:07:04.246Z,100.00
2023-03-26T01:09:35.569Z,100.00
2023-03-26T01:12:07.057Z,100.00
2023-03-26T01:14:35.330Z,100.00
2023-03-26T01:17:06.954Z,100.00
2023-03-26T01:19:44.868Z,100.00
2023-03-26T01:22:21.362Z,100.00
2023-03-26T01:24:53.832Z,100.00
2023-03-26T01:27:44.481Z,100.00
2023-03-26T01:30:27.443Z,100.00
2023-03-26T01:33:19.396Z,100.00
2023-03-26T01:36:04.428Z,100.00
2023-03-26T01:38:35.731Z,100.00
2023-03-26T01:41:27.171Z,100.00
2023-03-26T01:44:04.207Z,100.00
2023-03-26T01:46:37.398Z,100.00
2023-03-26T01:49:06.155Z,100.00
2023-03-26T01:51:35.552Z,100.00
2023-03-26T01:54:06.116Z,100.00
2023-03-26T01:56:53.693Z,100.00
2023-03-26T01:59:39.307Z,100.00
2023-03-26T02:02:38.874Z,100.00
2023-03-26T02:05:17.127Z,100.00
2023-03-26T02:07:59.877Z,100.00
2023-03-26T02:10:30.307Z,100.00
2023-03-26T02:12:59.104Z,100.00
2023-03-26T02:15:26.860Z,100.00
2023-03-26T02:17:54.958Z,100.00
2023-03-26T02:20:22.714Z,100.00
2023-03-26T02:22:50.340Z,100.00
2023-03-26T02:25:21.484Z,100.00
2023-03-26T02:27:52.799Z,100.00
2023-03-26T02:30:25.882Z,100.00
2023-03-26T02:32:59.350Z,100.00
2023-03-26T02:35:33.490Z,100.00
2023-03-26T02:38:02.907Z,100.00
2023-03-26T02:40:30.614Z,100.00
2023-03-26T02:42:58.890Z,100.00
2023-03-26T02:45:28.887Z,100.00
2023-03-26T02:48:16.890Z,100.00
2023-03-26T02:51:13.612Z,100.00
2023-03-26T02:54:02.392Z,100.00
2023-03-26T02:56:48.492Z,100.00
2023-03-26T02:59:27.502Z,100.00
2023-03-26T03:02:24.386Z,100.00
2023-03-26T03:05:01.662Z,100.00
2023-03-26T03:07:37.999Z,100.00
2023-03-26T03:10:08.814Z,100.00
2023-03-26T03:13:01.621Z,100.00
2023-03-26T03:15:29.502Z,100.00
2023-03-26T03:17:57.159Z,100.00
2023-03-26T03:20:30.662Z,100.00
2023-03-26T03:22:58.407Z,100.00
2023-03-26T03:25:26.183Z,100.00
2023-03-26T03:27:54.776Z,100.00
2023-03-26T03:30:22.461Z,100.00
2023-03-26T03:33:20.796Z,100.00
2023-03-26T03:35:49.697Z,100.00
2023-03-26T03:38:19.262Z,100.00
2023-03-26T03:40:50.041Z,100.00
2023-03-26T03:43:18.958Z,100.00
2023-03-26T03:46:00.452Z,100.00
2023-03-26T03:48:38.258Z,100.00
2023-03-26T03:51:07.508Z,100.00
2023-03-26T03:53:47.763Z,100.00
2023-03-26T03:56:19.698Z,100.00
2023-03-26T03:59:06.181Z,100.00
2023-03-26T04:01:35.916Z,100.00
2023-03-26T04:04:14.407Z,100.00
2023-03-26T04:06:54.241Z,100.00
2023-03-26T04:09:22.907Z,100.00
2023-03-26T04:11:51.139Z,100.00
2023-03-26T04:14:37.832Z,100.00
2023-03-26T04:17:13.563Z,100.00
2023-03-26T04:19:42.082Z,100.00
2023-03-26T04:22:12.029Z,100.00
2023-03-26T04:24:50.529Z,100.00
2023-03-26T04:27:37.390Z,100.00
2023-03-26T04:30:20.728Z,100.00
2023-03-26T04:33:06.546Z,100.00
2023-03-26T04:35:41.851Z,100.00
2023-03-26T04:38:12.070Z,100.00
2023-03-26T04:40:47.464Z,100.00
2023-03-26T04:43:47.143Z,100.00
2023-03-26T04:46:47.477Z,100.00
2023-03-26T04:49:27.754Z,100.00
2023-03-26T04:51:55.533Z,100.00
2023-03-26T04:54:54.870Z,100.00
2023-03-26T04:57:32.735Z,100.00
2023-03-26T05:00:20.262Z,100.00
2023-03-26T05:02:57.900Z,100.00
2023-03-26T05:05:28.072Z,100.00
2023-03-26T05:07:58.164Z,100.00
2023-03-26T05:10:26.160Z,100.00
2023-03-26T05:12:58.916Z,100.00
2023-03-26T05:15:30.054Z,100.00
2023-03-26T05:17:58.182Z,100.00
2023-03-26T05:20:40.229Z,100.00
2023-03-26T05:23:09.297Z,100.00
2023-03-26T05:25:39.022Z,100.00
2023-03-26T05:28:14.726Z,100.00
2023-03-26T05:30:53.350Z,100.00
2023-03-26T05:33:23.643Z,100.00
2023-03-26T05:36:09.568Z,100.00
2023-03-26T05:38:37.535Z,100.00
2023-03-26T05:41:09.989Z,100.00
2023-03-26T05:43:41.965Z,100.00
2023-03-26T05:46:12.894Z,100.00
2023-03-26T05:48:40.563Z,100.00
2023-03-26T05:51:09.137Z,100.00
2023-03-26T05:53:41.928Z,100.00
2023-03-26T05:56:12.790Z,100.00
2023-03-26T05:58:50.923Z,100.00
2023-03-26T06:01:39.829Z,100.00
2023-03-26T06:04:17.960Z,100.00
2023-03-26T06:07:11.470Z,100.00
2023-03-26T06:09:41.278Z,100.00
2023-03-26T06:12:10.786Z,100.00
2023-03-26T06:14:39.800Z,100.00
2023-03-26T06:17:14.317Z,100.00
2023-03-26T06:20:15.453Z,100.00
2023-03-26T06:22:46.777Z,100.00
2023-03-26T06:25:37.937Z,100.00
2023-03-26T06:28:22.182Z,100.00
2023-03-26T06:31:17.403Z,100.00
2023-03-26T06:33:54.285Z,100.00
2023-03-26T06:36:21.944Z,100.00
2023-03-26T06:38:50.977Z,100.00
2023-03-26T06:41:18.673Z,100.00
2023-03-26T06:44:21.413Z,100.00
2023-03-26T06:47:27.473Z,100.00
2023-03-26T06:50:14.288Z,100.00
2023-03-26T06:53:02.204Z,100.00
2023-03-26T06:55:42.897Z,100.00
2023-03-26T06:58:27.097Z,100.00
2023-03-26T07:01:13.727Z,100.00
2023-03-26T07:04:00.317Z,100.00
2023-03-26T07:06:46.507Z,100.00
2023-03-26T07:09:32.712Z,100.00
2023-03-26T07:12:03.038Z,100.00
2023-03-26T07:14:49.455Z,100.00
2023-03-26T07:17:35.501Z,100.00
2023-03-26T07:20:14.750Z,100.00
2023-03-26T07:22:43.274Z,100.00
2023-03-26T07:25:17.257Z,100.00
2023-03-26T07:28:05.482Z,100.00
2023-03-26T07:31:07.362Z,100.00
2023-03-26T07:34:04.606Z,100.00
2023-03-26T07:37:08.939Z,100.00
2023-03-26T07:40:01.095Z,100.00
2023-03-26T07:43:26.031Z,100.00
2023-03-26T07:46:31.993Z,100.00
2023-03-26T07:49:29.591Z,100.00
2023-03-26T07:52:10.929Z,100.00
2023-03-26T07:54:47.887Z,100.00
2023-03-26T07:57:53.296Z,100.00
2023-03-26T08:01:00.419Z,100.00
2023-03-26T08:04:24.924Z,99.66
2023-03-26T08:07:32.937Z,99.49
2023-03-26T08:10:19.299Z,99.71
2023-03-26T08:13:16.005Z,99.21
2023-03-26T08:15:50.085Z,99.49
2023-03-26T08:18:39.216Z,99.02
2023-03-26T08:21:10.035Z,98.44
2023-03-26T08:24:00.725Z,98.51
2023-03-26T08:26:35.920Z,98.37
2023-03-26T08:29:09.578Z,98.10
2023-03-26T08:31:41.429Z,98.62
2023-03-26T08:34:13.326Z,98.60
2023-03-26T08:36:41.370Z,98.68
2023-03-26T08:39:09.191Z,98.29
2023-03-26T08:41:52.087Z,97.34
2023-03-26T08:44:19.711Z,97.43
2023-03-26T08:47:15.382Z,95.38
2023-03-26T08:49:51.762Z,95.01
2023-03-26T08:52:41.978Z,92.79
2023-03-26T08:55:31.052Z,91.83
2023-03-26T08:58:33.477Z,88.66
2023-03-26T09:01:21.303Z,88.30
2023-03-26T09:04:04.080Z,89.20
2023-03-26T09:07:06.997Z,85.50
2023-03-26T09:09:40.890Z,87.50
2023-03-26T09:12:51.776Z,84.04
2023-03-26T09:15:37.659Z,85.21
2023-03-26T09:18:27.198Z,83.79
2023-03-26T09:21:22.472Z,83.57
2023-03-26T09:24:08.797Z,86.55
2023-03-26T09:26:55.204Z,85.71
2023-03-26T09:29:47.447Z,84.68
2023-03-26T09:32:33.756Z,86.60
2023-03-26T09:35:36.452Z,84.49
2023-03-26T09:38:39.366Z,85.41
2023-03-26T09:41:15.813Z,86.49
2023-03-26T09:44:12.728Z,86.97
2023-03-26T09:46:52.222Z,84.53
2023-03-26T09:49:33.316Z,84.88
2023-03-26T09:52:22.123Z,85.38
2023-03-26T09:55:28.664Z,86.62
2023-03-26T09:58:08.332Z,87.95
2023-03-26T10:00:50.094Z,87.59
2023-03-26T10:03:29.124Z,86.90
2023-03-26T10:06:12.978Z,88.96
2023-03-26T10:09:17.661Z,87.21
2023-03-26T10:12:06.287Z,85.01
2023-03-26T10:14:42.615Z,85.03
2023-03-26T10:17:13.962Z,84.77
2023-03-26T10:19:44.725Z,84.24
2023-03-26T10:22:27.484Z,85.58
2023-03-26T10:25:33.145Z,84.55
2023-03-26T10:28:20.377Z,83.71
2023-03-26T10:31:07.151Z,85.11
2023-03-26T10:33:49.927Z,84.24
2023-03-26T10:36:42.555Z,83.24
2023-03-26T10:39:38.114Z,82.89
2023-03-26T10:42:25.276Z,81.64
2023-03-26T10:45:07.813Z,78.83
2023-03-26T10:47:54.489Z,77.48
2023-03-26T10:50:57.698Z,77.93
2023-03-26T10:54:04.108Z,77.92
2023-03-26T10:56:39.417Z,79.87
2023-03-26T10:59:12.688Z,80.96
2023-03-26T11:02:29.374Z,82.03
2023-03-26T11:05:03.864Z,83.76
2023-03-26T11:07:41.607Z,84.25
2023-03-26T11:10:11.398Z,84.54
2023-03-26T11:12:41.596Z,86.61
2023-03-26T11:15:42.470Z,84.94
2023-03-26T11:18:42.241Z,86.00
2023-03-26T11:21:24.530Z,85.56
2023-03-26T11:24:13.777Z,83.03
2023-03-26T11:27:14.945Z,79.41
2023-03-26T11:30:11.381Z,78.56
2023-03-26T11:32:48.445Z,77.62
2023-03-26T11:35:40.280Z,77.63
2023-03-26T11:38:21.787Z,76.96
2023-03-26T11:40:53.624Z,77.32
2023-03-26T11:43:37.096Z,76.88
2023-03-26T11:46:38.262Z,77.60
2023-03-26T11:49:22.987Z,77.29
2023-03-26T11:51:50.924Z,77.42
2023-03-26T11:54:18.467Z,77.11
2023-03-26T11:57:05.497Z,77.72
2023-03-26T11:59:55.724Z,74.97
2023-03-26T12:02:29.309Z,76.11
2023-03-26T12:05:15.993Z,76.90
2023-03-26T12:07:55.904Z,74.86
2023-03-26T12:10:29.614Z,76.37
2023-03-26T12:13:00.589Z,76.08
2023-03-26T12:15:31.108Z,75.82
2023-03-26T12:18:18.044Z,75.82
2023-03-26T12:20:45.754Z,77.11
2023-03-26T12:23:51.848Z,78.22
2023-03-26T12:26:45.030Z,78.08
2023-03-26T12:29:16.658Z,77.14
2023-03-26T12:31:56.533Z,77.51
2023-03-26T12:34:36.525Z,76.90
2023-03-26T12:37:40.890Z,76.08
2023-03-26T12:40:26.101Z,75.32
2023-03-26T12:44:47.593Z,74.42
2023-03-26T12:45:44.927Z,73.18
2023-03-26T12:48:17.245Z,72.08
2023-03-26T12:51:07.008Z,70.59
2023-03-26T12:53:53.189Z,69.97
2023-03-26T12:56:27.371Z,70.57
2023-03-26T12:59:00.279Z,70.20
2023-03-26T13:01:40.762Z,70.54
2023-03-26T13:04:14.377Z,70.37
2023-03-26T13:06:59.298Z,70.06
2023-03-26T13:09:56.095Z,68.10
2023-03-26T13:12:23.701Z,69.77
2023-03-26T13:15:19.113Z,68.49
2023-03-26T13:18:28.212Z,68.96
2023-03-26T13:21:08.012Z,68.87
2023-03-26T13:23:47.463Z,70.07
2023-03-26T13:26:42.360Z,68.45
2023-03-26T13:29:12.627Z,69.11
2023-03-26T13:31:58.854Z,67.74
2023-03-26T13:34:56.052Z,67.18
2023-03-26T13:37:28.003Z,68.18
2023-03-26T13:40:14.315Z,67.25
2023-03-26T13:42:50.326Z,67.13
2023-03-26T13:45:43.174Z,66.52
2023-03-26T13:48:19.269Z,68.15
2023-03-26T13:51:05.047Z,66.69
2023-03-26T13:53:55.893Z,65.39
2023-03-26T13:56:31.465Z,65.12
2023-03-26T13:59:37.309Z,62.95
2023-03-26T14:02:23.762Z,62.89
2023-03-26T14:04:56.779Z,63.83
2023-03-26T14:07:32.374Z,63.22
2023-03-26T14:10:17.119Z,63.17
2023-03-26T14:12:57.117Z,63.12
2023-03-26T14:15:29.985Z,63.31
2023-03-26T14:18:48.881Z,61.75
2023-03-26T14:21:22.142Z,63.26
2023-03-26T14:24:21.393Z,62.98
2023-03-26T14:27:13.974Z,63.70
2023-03-26T14:30:05.854Z,64.29
2023-03-26T14:33:04.171Z,64.17
2023-03-26T14:35:41.617Z,64.06
2023-03-26T14:38:33.749Z,63.22
2023-03-26T14:41:10.657Z,64.12
2023-03-26T14:43:41.970Z,63.49
2023-03-26T14:46:41.616Z,62.92
2023-03-26T14:49:30.051Z,63.29
2023-03-26T14:52:21.485Z,61.14
2023-03-26T14:54:53.372Z,62.05
2023-03-26T14:57:57.974Z,60.05
2023-03-26T15:00:31.725Z,62.02
2023-03-26T15:03:07.535Z,61.91
2023-03-26T15:05:59.945Z,62.02
2023-03-26T15:09:14.311Z,60.43
2023-03-26T15:12:12.708Z,61.08
2023-03-26T15:14:59.865Z,61.47
2023-03-26T15:17:45.751Z,61.68
2023-03-26T15:20:26.184Z,61.27
2023-03-26T15:23:12.546Z,61.85
2023-03-26T15:25:58.910Z,59.79
2023-03-26T15:29:20.088Z,60.50
2023-03-26T15:32:10.180Z,61.65
2023-03-26T15:35:09.881Z,60.46
2023-03-26T15:38:05.859Z,59.54
2023-03-26T15:41:01.433Z,59.22
2023-03-26T15:44:24.834Z,57.92
2023-03-26T15:46:54.208Z,58.92
2023-03-26T15:49:29.811Z,59.53
2023-03-26T15:52:13.669Z,59.15
2023-03-26T15:54:53.531Z,59.13
2023-03-26T15:57:32.473Z,59.54
2023-03-26T16:00:15.459Z,60.12
2023-03-26T16:02:53.755Z,59.20
2023-03-26T16:05:51.736Z,59.73
2023-03-26T16:08:39.616Z,59.07
2023-03-26T16:11:12.805Z,59.72
2023-03-26T16:13:43.932Z,59.31
2023-03-26T16:16:21.087Z,58.26
2023-03-26T16:18:56.552Z,57.90
2023-03-26T16:21:32.449Z,58.54
2023-03-26T16:24:03.267Z,59.02
2023-03-26T16:26:52.037Z,58.13
2023-03-26T16:29:26.838Z,58.51
2023-03-26T16:32:19.179Z,58.46
2023-03-26T16:35:02.118Z,58.31
2023-03-26T16:37:36.461Z,58.88
2023-03-26T16:40:16.748Z,58.58
2023-03-26T16:43:15.082Z,58.23
2023-03-26T16:45:48.722Z,59.48
2023-03-26T16:48:53.746Z,58.54
2023-03-26T16:51:36.866Z,59.57
2023-03-26T16:54:18.495Z,58.95
2023-03-26T16:57:12.154Z,58.68
2023-03-26T17:00:16.600Z,57.62
2023-03-26T17:02:46.500Z,58.15
2023-03-26T17:05:25.431Z,57.06
2023-03-26T17:08:35.997Z,56.47
2023-03-26T17:11:15.561Z,56.78
2023-03-26T17:14:03.717Z,56.05
2023-03-26T17:16:41.804Z,56.78
2023-03-26T17:19:50.891Z,56.04
2023-03-26T17:22:39.289Z,56.41
2023-03-26T17:25:54.909Z,57.81
2023-03-26T17:28:46.083Z,58.77
2023-03-26T17:31:20.168Z,58.44
2023-03-26T17:33:48.287Z,58.28
2023-03-26T17:36:29.568Z,58.50
2023-03-26T17:39:04.953Z,57.99
2023-03-26T17:41:54.554Z,56.72
2023-03-26T17:44:43.999Z,56.28
2023-03-26T17:47:26.587Z,56.64
2023-03-26T17:50:00.387Z,57.13
2023-03-26T17:52:49.726Z,57.37
2023-03-26T17:55:27.820Z,58.42
2023-03-26T17:57:58.871Z,58.60
2023-03-26T18:00:29.806Z,58.58
2023-03-26T18:03:02.761Z,59.55
2023-03-26T18:05:31.269Z,59.37
2023-03-26T18:08:37.158Z,59.20
2023-03-26T18:11:25.349Z,59.63
2023-03-26T18:14:23.649Z,59.91
2023-03-26T18:16:53.926Z,61.19
2023-03-26T18:19:23.257Z,61.78
2023-03-26T18:21:56.968Z,62.28
2023-03-26T18:24:29.369Z,62.71
2023-03-26T18:27:02.136Z,62.76
2023-03-26T18:29:35.347Z,63.33
2023-03-26T18:32:09.437Z,63.44
2023-03-26T18:34:40.019Z,63.82
2023-03-26T18:37:23.958Z,63.28
2023-03-26T18:40:22.492Z,63.32
2023-03-26T18:42:58.624Z,64.44
2023-03-26T18:45:41.305Z,64.10
2023-03-26T18:48:38.399Z,64.37
2023-03-26T18:51:07.428Z,64.97
2023-03-26T18:53:43.265Z,64.95
2023-03-26T18:56:50.074Z,64.20
2023-03-26T18:59:32.569Z,64.80
2023-03-26T19:02:04.522Z,65.12
2023-03-26T19:04:34.316Z,65.72
2023-03-26T19:07:04.697Z,65.88
2023-03-26T19:09:32.755Z,66.30
2023-03-26T19:12:16.206Z,65.22
2023-03-26T19:14:56.256Z,65.66
2023-03-26T19:17:27.929Z,65.77
2023-03-26T19:19:57.352Z,66.69
2023-03-26T19:22:26.133Z,66.85
2023-03-26T19:25:01.082Z,66.67
2023-03-26T19:27:29.054Z,66.67
2023-03-26T19:29:57.511Z,67.07
2023-03-26T19:32:32.565Z,67.15
2023-03-26T19:35:04.055Z,67.61
2023-03-26T19:37:32.621Z,67.85
2023-03-26T19:40:07.340Z,67.96
2023-03-26T19:42:43.434Z,68.38
2023-03-26T19:45:18.802Z,69.00
2023-03-26T19:47:48.682Z,69.05
2023-03-26T19:50:25.947Z,69.95
2023-03-26T19:53:16.623Z,70.23
2023-03-26T19:56:13.432Z,70.50
2023-03-26T19:58:42.415Z,71.31
2023-03-26T20:01:16.164Z,71.89
2023-03-26T20:03:47.061Z,71.79
2023-03-26T20:06:17.374Z,71.79
2023-03-26T20:08:45.953Z,72.37
2023-03-26T20:11:20.262Z,71.73
2023-03-26T20:13:48.505Z,72.14
2023-03-26T20:16:29.361Z,71.73
2023-03-26T20:18:58.994Z,72.09
2023-03-26T20:21:26.797Z,72.33
2023-03-26T20:23:54.848Z,72.95
2023-03-26T20:26:24.090Z,73.24
2023-03-26T20:28:53.370Z,73.27
2023-03-26T20:31:26.836Z,72.93
2023-03-26T20:33:54.663Z,73.54
2023-03-26T20:36:33.778Z,73.36
2023-03-26T20:39:06.206Z,73.70
2023-03-26T20:41:34.987Z,73.95
2023-03-26T20:44:05.004Z,73.81
2023-03-26T20:46:33.317Z,73.79
2023-03-26T20:49:01.072Z,74.39
2023-03-26T20:51:29.097Z,74.21
2023-03-26T20:53:56.791Z,74.51
2023-03-26T20:56:24.341Z,74.04
2023-03-26T20:59:09.877Z,74.38
2023-03-26T21:01:38.769Z,74.28
2023-03-26T21:04:06.978Z,74.81
2023-03-26T21:06:34.853Z,74.77
2023-03-26T21:09:02.799Z,74.76
2023-03-26T21:11:45.920Z,75.01
2023-03-26T21:14:21.897Z,75.41
2023-03-26T21:16:49.910Z,74.63
2023-03-26T21:19:18.226Z,74.45
2023-03-26T21:22:10.850Z,74.52
2023-03-26T21:24:49.499Z,74.96
2023-03-26T21:27:26.466Z,74.51
2023-03-26T21:29:55.409Z,74.68
2023-03-26T21:32:23.433Z,74.89
2023-03-26T21:34:58.176Z,74.42
2023-03-26T21:37:26.962Z,74.65
2023-03-26T21:39:55.104Z,74.95
2023-03-26T21:42:26.917Z,74.97
2023-03-26T21:44:55.339Z,75.36
2023-03-26T21:47:23.190Z,75.26
2023-03-26T21:49:52.380Z,74.69
2023-03-26T21:52:22.630Z,74.73
2023-03-26T21:54:50.572Z,74.62
2023-03-26T21:57:45.022Z,74.66
2023-03-26T22:00:18.244Z,74.53
2023-03-26T22:02:45.832Z,74.88
2023-03-26T22:05:52.044Z,75.01
2023-03-26T22:08:40.065Z,74.36
2023-03-26T22:11:09.419Z,75.15
2023-03-26T22:13:38.865Z,74.56
2023-03-26T22:16:09.555Z,74.94
2023-03-26T22:18:37.346Z,74.44
2023-03-26T22:21:05.982Z,74.81
2023-03-26T22:23:38.087Z,74.56
2023-03-26T22:26:06.087Z,74.32
2023-03-26T22:28:33.688Z,74.46
2023-03-26T22:31:08.691Z,74.19
2023-03-26T22:33:36.705Z,74.23
2023-03-26T22:36:04.578Z,74.02
2023-03-26T22:38:32.173Z,74.01
2023-03-26T22:40:59.711Z,74.35
2023-03-26T22:43:27.278Z,74.20
2023-03-26T22:45:55.164Z,73.44
2023-03-26T22:48:23.799Z,73.35
2023-03-26T22:50:59.315Z,72.53
2023-03-26T22:53:27.249Z,72.88
2023-03-26T22:55:55.142Z,72.43
2023-03-26T22:58:22.922Z,72.13
2023-03-26T23:00:54.514Z,71.37
2023-03-26T23:03:35.027Z,71.62
2023-03-26T23:06:06.948Z,71.76
2023-03-26T23:08:37.473Z,71.13
2023-03-26T23:11:16.942Z,70.66
2023-03-26T23:13:45.620Z,71.12
2023-03-26T23:16:14.197Z,70.80
2023-03-26T23:18:42.241Z,71.07
2023-03-26T23:21:18.671Z,71.38
2023-03-26T23:23:47.529Z,70.85
2023-03-26T23:26:16.383Z,71.20
2023-03-26T23:28:44.183Z,71.16
2023-03-26T23:31:12.586Z,70.67
2023-03-26T23:33:46.678Z,71.01
2023-03-26T23:36:18.392Z,70.46
2023-03-26T23:38:48.074Z,70.53
2023-03-26T23:41:18.238Z,70.73
2023-03-26T23:43:54.203Z,70.15
2023-03-26T23:46:25.257Z,69.83
2023-03-26T23:48:53.225Z,70.39
2023-03-26T23:51:21.655Z,69.59
2023-03-26T23:53:49.698Z,69.62
2023-03-26T23:56:17.888Z,69.75
2023-03-26T23:58:45.580Z,69.00
